sensor_id;sensor_type;location;lat;lon;timestamp;P1;durP1;ratioP1;P2;durP2;ratioP2
18661;SDS011;61528;49.456;11.098;2022-07-25T00:00:43;12.57;;;11.47;;
18661;SDS011;61528;49.456;11.098;2022-07-25T00:03:10;12.77;;;11.53;;
18661;SDS011;61528;49.456;11.098;2022-07-25T00:05:36;11.80;;;10.73;;
18661;SDS011;61528;49.456;11.098;2022-07-25T00:08:02;12.57;;;11.47;;
18661;SDS011;61528;49.456;11.098;2022-07-25T00:10:29;11.80;;;10.90;;
18661;SDS011;61528;49.456;11.098;2022-07-25T00:12:55;12.33;;;11.23;;
18661;SDS011;61528;49.456;11.098;2022-07-25T00:15:21;12.77;;;11.67;;
18661;SDS011;61528;49.456;11.098;2022-07-25T00:17:47;13.80;;;12.47;;
18661;SDS011;61528;49.456;11.098;2022-07-25T00:20:14;12.97;;;11.87;;
18661;SDS011;61528;49.456;11.098;2022-07-25T00:22:40;12.33;;;11.03;;
18661;SDS011;61528;49.456;11.098;2022-07-25T00:25:07;13.33;;;12.13;;
18661;SDS011;61528;49.456;11.098;2022-07-25T00:27:34;13.37;;;12.03;;
18661;SDS011;61528;49.456;11.098;2022-07-25T00:30:00;13.07;;;11.67;;
18661;SDS011;61528;49.456;11.098;2022-07-25T00:32:26;13.13;;;11.77;;
18661;SDS011;61528;49.456;11.098;2022-07-25T00:34:52;12.90;;;11.47;;
18661;SDS011;61528;49.456;11.098;2022-07-25T00:37:19;12.30;;;11.03;;
18661;SDS011;61528;49.456;11.098;2022-07-25T00:39:45;13.83;;;12.53;;
18661;SDS011;61528;49.456;11.098;2022-07-25T00:42:11;12.33;;;11.13;;
18661;SDS011;61528;49.456;11.098;2022-07-25T00:44:37;12.90;;;11.60;;
18661;SDS011;61528;49.456;11.098;2022-07-25T00:47:03;13.20;;;11.73;;
18661;SDS011;61528;49.456;11.098;2022-07-25T00:49:30;12.93;;;11.67;;
18661;SDS011;61528;49.456;11.098;2022-07-25T00:51:56;13.10;;;11.87;;
18661;SDS011;61528;49.456;11.098;2022-07-25T00:54:22;13.30;;;12.10;;
18661;SDS011;61528;49.456;11.098;2022-07-25T00:56:49;12.43;;;11.23;;
18661;SDS011;61528;49.456;11.098;2022-07-25T00:59:16;12.57;;;11.37;;
18661;SDS011;61528;49.456;11.098;2022-07-25T01:01:43;12.57;;;11.37;;
18661;SDS011;61528;49.456;11.098;2022-07-25T01:04:12;12.33;;;11.23;;
18661;SDS011;61528;49.456;11.098;2022-07-25T01:06:38;12.97;;;11.77;;
18661;SDS011;61528;49.456;11.098;2022-07-25T01:09:04;13.73;;;12.33;;
18661;SDS011;61528;49.456;11.098;2022-07-25T01:11:31;12.93;;;11.63;;
18661;SDS011;61528;49.456;11.098;2022-07-25T01:13:57;12.90;;;11.80;;
18661;SDS011;61528;49.456;11.098;2022-07-25T01:16:23;12.67;;;11.47;;
18661;SDS011;61528;49.456;11.098;2022-07-25T01:18:49;12.57;;;11.33;;
18661;SDS011;61528;49.456;11.098;2022-07-25T01:21:16;12.50;;;11.40;;
18661;SDS011;61528;49.456;11.098;2022-07-25T01:23:42;12.70;;;11.53;;
18661;SDS011;61528;49.456;11.098;2022-07-25T01:26:08;12.77;;;11.50;;
18661;SDS011;61528;49.456;11.098;2022-07-25T01:28:34;12.63;;;11.53;;
18661;SDS011;61528;49.456;11.098;2022-07-25T01:31:01;12.63;;;11.43;;
18661;SDS011;61528;49.456;11.098;2022-07-25T01:33:27;12.43;;;11.33;;
18661;SDS011;61528;49.456;11.098;2022-07-25T01:35:53;13.23;;;12.03;;
18661;SDS011;61528;49.456;11.098;2022-07-25T01:38:19;12.27;;;11.27;;
18661;SDS011;61528;49.456;11.098;2022-07-25T01:40:45;12.20;;;11.10;;
18661;SDS011;61528;49.456;11.098;2022-07-25T01:43:12;11.73;;;10.63;;
18661;SDS011;61528;49.456;11.098;2022-07-25T01:45:38;11.77;;;10.77;;
18661;SDS011;61528;49.456;11.098;2022-07-25T01:48:04;12.77;;;11.57;;
18661;SDS011;61528;49.456;11.098;2022-07-25T01:50:30;12.47;;;11.27;;
18661;SDS011;61528;49.456;11.098;2022-07-25T01:52:57;13.17;;;11.80;;
18661;SDS011;61528;49.456;11.098;2022-07-25T01:55:23;12.77;;;11.57;;
18661;SDS011;61528;49.456;11.098;2022-07-25T01:57:49;13.33;;;12.23;;
18661;SDS011;61528;49.456;11.098;2022-07-25T02:00:16;12.80;;;11.50;;
18661;SDS011;61528;49.456;11.098;2022-07-25T02:02:42;12.80;;;11.57;;
18661;SDS011;61528;49.456;11.098;2022-07-25T02:05:09;12.47;;;11.37;;
18661;SDS011;61528;49.456;11.098;2022-07-25T02:07:36;12.53;;;11.43;;
18661;SDS011;61528;49.456;11.098;2022-07-25T02:10:03;12.10;;;10.97;;
18661;SDS011;61528;49.456;11.098;2022-07-25T02:12:30;12.50;;;11.30;;
18661;SDS011;61528;49.456;11.098;2022-07-25T02:14:56;13.17;;;11.87;;
18661;SDS011;61528;49.456;11.098;2022-07-25T02:17:22;12.17;;;11.07;;
18661;SDS011;61528;49.456;11.098;2022-07-25T02:19:48;12.27;;;11.17;;
18661;SDS011;61528;49.456;11.098;2022-07-25T02:22:15;12.47;;;11.27;;
18661;SDS011;61528;49.456;11.098;2022-07-25T02:24:41;13.03;;;11.60;;
18661;SDS011;61528;49.456;11.098;2022-07-25T02:27:07;14.37;;;11.57;;
18661;SDS011;61528;49.456;11.098;2022-07-25T02:29:34;13.00;;;11.87;;
18661;SDS011;61528;49.456;11.098;2022-07-25T02:32:00;12.70;;;11.57;;
18661;SDS011;61528;49.456;11.098;2022-07-25T02:34:26;11.90;;;10.90;;
18661;SDS011;61528;49.456;11.098;2022-07-25T02:36:52;12.63;;;11.37;;
18661;SDS011;61528;49.456;11.098;2022-07-25T02:39:19;12.50;;;11.43;;
18661;SDS011;61528;49.456;11.098;2022-07-25T02:41:45;13.07;;;11.87;;
18661;SDS011;61528;49.456;11.098;2022-07-25T02:44:11;12.23;;;11.13;;
18661;SDS011;61528;49.456;11.098;2022-07-25T02:46:37;12.90;;;11.33;;
18661;SDS011;61528;49.456;11.098;2022-07-25T02:49:03;11.40;;;10.40;;
18661;SDS011;61528;49.456;11.098;2022-07-25T02:51:30;12.83;;;11.53;;
18661;SDS011;61528;49.456;11.098;2022-07-25T02:53:56;11.73;;;10.63;;
18661;SDS011;61528;49.456;11.098;2022-07-25T02:56:22;12.83;;;11.63;;
18661;SDS011;61528;49.456;11.098;2022-07-25T02:58:48;12.37;;;11.23;;
18661;SDS011;61528;49.456;11.098;2022-07-25T03:01:14;12.23;;;10.93;;
18661;SDS011;61528;49.456;11.098;2022-07-25T03:03:41;13.17;;;11.80;;
18661;SDS011;61528;49.456;11.098;2022-07-25T03:06:07;12.43;;;11.33;;
18661;SDS011;61528;49.456;11.098;2022-07-25T03:08:33;12.57;;;11.47;;
18661;SDS011;61528;49.456;11.098;2022-07-25T03:10:59;13.33;;;12.07;;
18661;SDS011;61528;49.456;11.098;2022-07-25T03:13:25;11.83;;;10.83;;
18661;SDS011;61528;49.456;11.098;2022-07-25T03:15:51;12.33;;;11.23;;
18661;SDS011;61528;49.456;11.098;2022-07-25T03:18:17;13.83;;;11.93;;
18661;SDS011;61528;49.456;11.098;2022-07-25T03:20:43;13.37;;;12.17;;
18661;SDS011;61528;49.456;11.098;2022-07-25T03:23:09;13.80;;;12.50;;
18661;SDS011;61528;49.456;11.098;2022-07-25T03:25:35;13.50;;;12.10;;
18661;SDS011;61528;49.456;11.098;2022-07-25T03:28:01;13.87;;;12.43;;
18661;SDS011;61528;49.456;11.098;2022-07-25T03:30:28;13.17;;;11.87;;
18661;SDS011;61528;49.456;11.098;2022-07-25T03:32:54;13.73;;;12.33;;
18661;SDS011;61528;49.456;11.098;2022-07-25T03:35:20;13.13;;;11.93;;
18661;SDS011;61528;49.456;11.098;2022-07-25T03:37:46;13.43;;;12.23;;
18661;SDS011;61528;49.456;11.098;2022-07-25T03:40:12;13.97;;;12.77;;
18661;SDS011;61528;49.456;11.098;2022-07-25T03:42:39;13.00;;;11.80;;
18661;SDS011;61528;49.456;11.098;2022-07-25T03:45:06;13.87;;;12.50;;
18661;SDS011;61528;49.456;11.098;2022-07-25T03:47:32;13.17;;;11.97;;
18661;SDS011;61528;49.456;11.098;2022-07-25T03:49:59;13.13;;;12.03;;
18661;SDS011;61528;49.456;11.098;2022-07-25T03:52:25;13.53;;;12.33;;
18661;SDS011;61528;49.456;11.098;2022-07-25T03:54:51;14.00;;;12.80;;
18661;SDS011;61528;49.456;11.098;2022-07-25T03:57:17;13.37;;;12.13;;
18661;SDS011;61528;49.456;11.098;2022-07-25T03:59:43;13.73;;;12.43;;
18661;SDS011;61528;49.456;11.098;2022-07-25T04:02:09;13.90;;;12.50;;
18661;SDS011;61528;49.456;11.098;2022-07-25T04:04:36;14.57;;;13.00;;
18661;SDS011;61528;49.456;11.098;2022-07-25T04:07:02;16.10;;;13.03;;
18661;SDS011;61528;49.456;11.098;2022-07-25T04:09:28;13.87;;;12.47;;
18661;SDS011;61528;49.456;11.098;2022-07-25T04:11:54;13.57;;;12.27;;
18661;SDS011;61528;49.456;11.098;2022-07-25T04:14:20;15.30;;;12.47;;
18661;SDS011;61528;49.456;11.098;2022-07-25T04:16:46;14.27;;;12.43;;
18661;SDS011;61528;49.456;11.098;2022-07-25T04:19:12;13.47;;;12.07;;
18661;SDS011;61528;49.456;11.098;2022-07-25T04:21:39;13.87;;;12.47;;
18661;SDS011;61528;49.456;11.098;2022-07-25T04:24:05;14.17;;;12.53;;
18661;SDS011;61528;49.456;11.098;2022-07-25T04:26:31;14.33;;;12.87;;
18661;SDS011;61528;49.456;11.098;2022-07-25T04:28:57;14.20;;;12.80;;
18661;SDS011;61528;49.456;11.098;2022-07-25T04:31:26;14.30;;;12.87;;
18661;SDS011;61528;49.456;11.098;2022-07-25T04:33:53;14.07;;;12.63;;
18661;SDS011;61528;49.456;11.098;2022-07-25T04:36:19;14.40;;;12.90;;
18661;SDS011;61528;49.456;11.098;2022-07-25T04:38:45;15.30;;;12.60;;
18661;SDS011;61528;49.456;11.098;2022-07-25T04:41:11;14.40;;;12.90;;
18661;SDS011;61528;49.456;11.098;2022-07-25T04:43:37;14.80;;;13.20;;
18661;SDS011;61528;49.456;11.098;2022-07-25T04:46:03;13.43;;;11.57;;
18661;SDS011;61528;49.456;11.098;2022-07-25T04:48:29;14.30;;;12.90;;
18661;SDS011;61528;49.456;11.098;2022-07-25T04:50:55;14.07;;;12.63;;
18661;SDS011;61528;49.456;11.098;2022-07-25T04:53:21;15.73;;;12.93;;
18661;SDS011;61528;49.456;11.098;2022-07-25T04:55:48;14.23;;;12.93;;
18661;SDS011;61528;49.456;11.098;2022-07-25T04:58:14;14.80;;;12.80;;
18661;SDS011;61528;49.456;11.098;2022-07-25T05:00:40;14.50;;;12.57;;
18661;SDS011;61528;49.456;11.098;2022-07-25T05:03:06;13.70;;;12.40;;
18661;SDS011;61528;49.456;11.098;2022-07-25T05:05:33;14.27;;;12.63;;
18661;SDS011;61528;49.456;11.098;2022-07-25T05:07:59;14.07;;;12.70;;
18661;SDS011;61528;49.456;11.098;2022-07-25T05:10:25;14.00;;;12.70;;
18661;SDS011;61528;49.456;11.098;2022-07-25T05:12:52;14.47;;;12.37;;
18661;SDS011;61528;49.456;11.098;2022-07-25T05:15:18;15.20;;;13.60;;
18661;SDS011;61528;49.456;11.098;2022-07-25T05:17:44;15.53;;;12.60;;
18661;SDS011;61528;49.456;11.098;2022-07-25T05:20:11;14.83;;;13.23;;
18661;SDS011;61528;49.456;11.098;2022-07-25T05:22:37;17.10;;;12.43;;
18661;SDS011;61528;49.456;11.098;2022-07-25T05:25:08;13.80;;;11.70;;
18661;SDS011;61528;49.456;11.098;2022-07-25T05:27:35;13.43;;;12.00;;
18661;SDS011;61528;49.456;11.098;2022-07-25T05:30:01;17.00;;;12.83;;
18661;SDS011;61528;49.456;11.098;2022-07-25T05:32:27;12.90;;;11.67;;
18661;SDS011;61528;49.456;11.098;2022-07-25T05:34:53;12.53;;;11.33;;
18661;SDS011;61528;49.456;11.098;2022-07-25T05:37:19;12.73;;;11.20;;
18661;SDS011;61528;49.456;11.098;2022-07-25T05:39:45;11.63;;;10.63;;
18661;SDS011;61528;49.456;11.098;2022-07-25T05:42:12;11.70;;;10.50;;
18661;SDS011;61528;49.456;11.098;2022-07-25T05:44:38;12.90;;;10.63;;
18661;SDS011;61528;49.456;11.098;2022-07-25T05:47:11;11.50;;;10.40;;
18661;SDS011;61528;49.456;11.098;2022-07-25T05:49:37;12.43;;;10.50;;
18661;SDS011;61528;49.456;11.098;2022-07-25T05:52:03;12.23;;;10.90;;
18661;SDS011;61528;49.456;11.098;2022-07-25T05:54:30;11.87;;;9.80;;
18661;SDS011;61528;49.456;11.098;2022-07-25T05:56:58;10.63;;;9.63;;
18661;SDS011;61528;49.456;11.098;2022-07-25T05:59:24;11.33;;;10.07;;
18661;SDS011;61528;49.456;11.098;2022-07-25T06:01:50;10.27;;;9.27;;
18661;SDS011;61528;49.456;11.098;2022-07-25T06:04:16;10.77;;;9.70;;
18661;SDS011;61528;49.456;11.098;2022-07-25T06:06:42;11.10;;;9.20;;
18661;SDS011;61528;49.456;11.098;2022-07-25T06:09:15;9.33;;;8.23;;
18661;SDS011;61528;49.456;11.098;2022-07-25T06:11:41;9.87;;;8.97;;
18661;SDS011;61528;49.456;11.098;2022-07-25T06:14:07;9.50;;;8.70;;
18661;SDS011;61528;49.456;11.098;2022-07-25T06:16:33;10.07;;;9.13;;
18661;SDS011;61528;49.456;11.098;2022-07-25T06:19:00;9.30;;;8.37;;
18661;SDS011;61528;49.456;11.098;2022-07-25T06:21:26;8.60;;;7.77;;
18661;SDS011;61528;49.456;11.098;2022-07-25T06:23:52;10.07;;;7.97;;
18661;SDS011;61528;49.456;11.098;2022-07-25T06:26:19;8.27;;;7.57;;
18661;SDS011;61528;49.456;11.098;2022-07-25T06:28:45;8.23;;;7.43;;
18661;SDS011;61528;49.456;11.098;2022-07-25T06:31:12;8.97;;;8.20;;
18661;SDS011;61528;49.456;11.098;2022-07-25T06:33:39;8.53;;;7.63;;
18661;SDS011;61528;49.456;11.098;2022-07-25T06:36:05;9.20;;;8.13;;
18661;SDS011;61528;49.456;11.098;2022-07-25T06:38:31;8.40;;;7.60;;
18661;SDS011;61528;49.456;11.098;2022-07-25T06:40:57;8.90;;;8.17;;
18661;SDS011;61528;49.456;11.098;2022-07-25T06:46:28;10.17;;;7.80;;
18661;SDS011;61528;49.456;11.098;2022-07-25T06:48:56;8.43;;;7.53;;
18661;SDS011;61528;49.456;11.098;2022-07-25T06:51:23;8.27;;;7.50;;
18661;SDS011;61528;49.456;11.098;2022-07-25T06:53:49;8.27;;;7.43;;
18661;SDS011;61528;49.456;11.098;2022-07-25T06:56:16;7.67;;;7.07;;
18661;SDS011;61528;49.456;11.098;2022-07-25T06:58:42;8.20;;;7.50;;
18661;SDS011;61528;49.456;11.098;2022-07-25T07:01:08;8.00;;;7.30;;
18661;SDS011;61528;49.456;11.098;2022-07-25T07:03:35;8.10;;;7.27;;
18661;SDS011;61528;49.456;11.098;2022-07-25T07:06:06;8.00;;;7.33;;
18661;SDS011;61528;49.456;11.098;2022-07-25T07:08:33;7.73;;;7.03;;
18661;SDS011;61528;49.456;11.098;2022-07-25T07:10:59;7.93;;;7.23;;
18661;SDS011;61528;49.456;11.098;2022-07-25T07:13:26;7.80;;;7.10;;
18661;SDS011;61528;49.456;11.098;2022-07-25T07:15:52;7.93;;;7.10;;
18661;SDS011;61528;49.456;11.098;2022-07-25T07:18:19;8.20;;;7.37;;
18661;SDS011;61528;49.456;11.098;2022-07-25T07:20:46;7.60;;;6.90;;
18661;SDS011;61528;49.456;11.098;2022-07-25T07:23:12;8.10;;;7.40;;
18661;SDS011;61528;49.456;11.098;2022-07-25T07:25:39;7.60;;;6.90;;
18661;SDS011;61528;49.456;11.098;2022-07-25T07:28:05;7.70;;;7.00;;
18661;SDS011;61528;49.456;11.098;2022-07-25T07:30:32;8.20;;;7.40;;
18661;SDS011;61528;49.456;11.098;2022-07-25T07:32:58;7.87;;;7.10;;
18661;SDS011;61528;49.456;11.098;2022-07-25T07:35:25;8.30;;;7.60;;
18661;SDS011;61528;49.456;11.098;2022-07-25T07:37:51;7.37;;;6.77;;
18661;SDS011;61528;49.456;11.098;2022-07-25T07:40:18;7.77;;;7.00;;
18661;SDS011;61528;49.456;11.098;2022-07-25T07:42:45;6.60;;;6.00;;
18661;SDS011;61528;49.456;11.098;2022-07-25T07:45:12;7.07;;;6.57;;
18661;SDS011;61528;49.456;11.098;2022-07-25T07:47:39;7.47;;;6.83;;
18661;SDS011;61528;49.456;11.098;2022-07-25T07:50:06;7.70;;;7.10;;
18661;SDS011;61528;49.456;11.098;2022-07-25T07:52:32;9.60;;;6.90;;
18661;SDS011;61528;49.456;11.098;2022-07-25T07:54:58;6.60;;;6.10;;
18661;SDS011;61528;49.456;11.098;2022-07-25T07:57:43;6.80;;;6.30;;
18661;SDS011;61528;49.456;11.098;2022-07-25T08:00:09;7.63;;;6.33;;
18661;SDS011;61528;49.456;11.098;2022-07-25T08:02:45;7.30;;;6.60;;
18661;SDS011;61528;49.456;11.098;2022-07-25T08:05:12;7.33;;;6.63;;
18661;SDS011;61528;49.456;11.098;2022-07-25T08:07:38;6.90;;;6.40;;
18661;SDS011;61528;49.456;11.098;2022-07-25T08:10:05;7.07;;;6.47;;
18661;SDS011;61528;49.456;11.098;2022-07-25T08:12:31;7.03;;;6.43;;
18661;SDS011;61528;49.456;11.098;2022-07-25T08:14:57;7.00;;;6.40;;
18661;SDS011;61528;49.456;11.098;2022-07-25T08:17:23;7.77;;;6.57;;
18661;SDS011;61528;49.456;11.098;2022-07-25T08:19:49;6.93;;;6.33;;
18661;SDS011;61528;49.456;11.098;2022-07-25T08:22:16;7.40;;;6.70;;
18661;SDS011;61528;49.456;11.098;2022-07-25T08:24:42;6.87;;;6.37;;
18661;SDS011;61528;49.456;11.098;2022-07-25T08:27:11;6.90;;;6.30;;
18661;SDS011;61528;49.456;11.098;2022-07-25T08:29:37;7.17;;;6.47;;
18661;SDS011;61528;49.456;11.098;2022-07-25T08:32:03;7.47;;;6.87;;
18661;SDS011;61528;49.456;11.098;2022-07-25T08:34:30;7.22;;;6.63;;
18661;SDS011;61528;49.456;11.098;2022-07-25T08:36:56;6.93;;;6.38;;
18661;SDS011;61528;49.456;11.098;2022-07-25T08:39:22;7.82;;;6.47;;
18661;SDS011;61528;49.456;11.098;2022-07-25T08:41:48;6.43;;;5.93;;
18661;SDS011;61528;49.456;11.098;2022-07-25T08:44:16;7.00;;;6.28;;
18661;SDS011;61528;49.456;11.098;2022-07-25T08:46:43;6.80;;;6.22;;
18661;SDS011;61528;49.456;11.098;2022-07-25T08:49:10;7.18;;;6.57;;
18661;SDS011;61528;49.456;11.098;2022-07-25T08:51:36;7.50;;;6.80;;
18661;SDS011;61528;49.456;11.098;2022-07-25T08:54:03;8.00;;;7.03;;
18661;SDS011;61528;49.456;11.098;2022-07-25T08:56:29;8.23;;;7.57;;
18661;SDS011;61528;49.456;11.098;2022-07-25T08:58:55;7.18;;;6.57;;
18661;SDS011;61528;49.456;11.098;2022-07-25T09:01:23;7.95;;;7.15;;
18661;SDS011;61528;49.456;11.098;2022-07-25T09:03:49;8.00;;;7.28;;
18661;SDS011;61528;49.456;11.098;2022-07-25T09:06:18;7.43;;;6.85;;
18661;SDS011;61528;49.456;11.098;2022-07-25T09:11:31;7.40;;;6.85;;
18661;SDS011;61528;49.456;11.098;2022-07-25T09:13:58;7.63;;;6.93;;
18661;SDS011;61528;49.456;11.098;2022-07-25T09:16:28;7.80;;;7.10;;
18661;SDS011;61528;49.456;11.098;2022-07-25T09:19:04;7.20;;;6.63;;
18661;SDS011;61528;49.456;11.098;2022-07-25T09:21:30;8.77;;;7.95;;
18661;SDS011;61528;49.456;11.098;2022-07-25T09:23:56;7.88;;;7.28;;
18661;SDS011;61528;49.456;11.098;2022-07-25T09:26:41;7.82;;;7.25;;
18661;SDS011;61528;49.456;11.098;2022-07-25T09:29:07;7.22;;;6.63;;
18661;SDS011;61528;49.456;11.098;2022-07-25T09:31:33;7.80;;;7.00;;
18661;SDS011;61528;49.456;11.098;2022-07-25T09:34:00;7.80;;;7.20;;
18661;SDS011;61528;49.456;11.098;2022-07-25T09:36:31;9.23;;;7.90;;
18661;SDS011;61528;49.456;11.098;2022-07-25T09:39:00;8.00;;;7.30;;
18661;SDS011;61528;49.456;11.098;2022-07-25T09:44:14;8.73;;;7.93;;
18661;SDS011;61528;49.456;11.098;2022-07-25T09:46:41;8.88;;;8.00;;
18661;SDS011;61528;49.456;11.098;2022-07-25T09:49:07;8.07;;;7.47;;
18661;SDS011;61528;49.456;11.098;2022-07-25T09:51:33;7.95;;;7.25;;
18661;SDS011;61528;49.456;11.098;2022-07-25T09:54:03;8.02;;;7.28;;
18661;SDS011;61528;49.456;11.098;2022-07-25T09:56:30;8.93;;;8.02;;
18661;SDS011;61528;49.456;11.098;2022-07-25T09:58:57;8.60;;;7.88;;
18661;SDS011;61528;49.456;11.098;2022-07-25T10:01:26;8.52;;;7.82;;
18661;SDS011;61528;49.456;11.098;2022-07-25T10:04:00;8.50;;;7.70;;
18661;SDS011;61528;49.456;11.098;2022-07-25T10:06:41;8.55;;;7.55;;
18661;SDS011;61528;49.456;11.098;2022-07-25T10:09:13;8.80;;;8.00;;
18661;SDS011;61528;49.456;11.098;2022-07-25T10:11:40;7.75;;;7.22;;
18661;SDS011;61528;49.456;11.098;2022-07-25T10:14:10;8.57;;;7.72;;
18661;SDS011;61528;49.456;11.098;2022-07-25T10:16:46;8.30;;;7.60;;
18661;SDS011;61528;49.456;11.098;2022-07-25T10:19:13;8.30;;;7.63;;
18661;SDS011;61528;49.456;11.098;2022-07-25T10:21:40;7.75;;;7.25;;
18661;SDS011;61528;49.456;11.098;2022-07-25T10:24:07;8.13;;;7.40;;
18661;SDS011;61528;49.456;11.098;2022-07-25T10:26:35;8.32;;;7.50;;
18661;SDS011;61528;49.456;11.098;2022-07-25T10:29:06;8.70;;;7.90;;
18661;SDS011;61528;49.456;11.098;2022-07-25T10:31:34;7.70;;;7.10;;
18661;SDS011;61528;49.456;11.098;2022-07-25T10:34:04;8.52;;;7.88;;
18661;SDS011;61528;49.456;11.098;2022-07-25T10:36:52;8.52;;;7.80;;
18661;SDS011;61528;49.456;11.098;2022-07-25T10:39:20;8.85;;;8.05;;
18661;SDS011;61528;49.456;11.098;2022-07-25T10:41:51;9.02;;;8.27;;
18661;SDS011;61528;49.456;11.098;2022-07-25T10:44:17;8.40;;;7.65;;
18661;SDS011;61528;49.456;11.098;2022-07-25T10:46:43;8.38;;;7.68;;
18661;SDS011;61528;49.456;11.098;2022-07-25T10:49:20;8.43;;;7.70;;
18661;SDS011;61528;49.456;11.098;2022-07-25T10:51:56;8.88;;;8.05;;
18661;SDS011;61528;49.456;11.098;2022-07-25T10:54:22;8.93;;;8.02;;
18661;SDS011;61528;49.456;11.098;2022-07-25T10:56:52;7.53;;;6.93;;
18661;SDS011;61528;49.456;11.098;2022-07-25T11:01:55;8.25;;;7.45;;
18661;SDS011;61528;49.456;11.098;2022-07-25T11:04:21;7.47;;;6.95;;
18661;SDS011;61528;49.456;11.098;2022-07-25T11:06:47;8.10;;;7.40;;
18661;SDS011;61528;49.456;11.098;2022-07-25T11:09:14;7.68;;;7.07;;
18661;SDS011;61528;49.456;11.098;2022-07-25T11:11:42;7.72;;;7.10;;
18661;SDS011;61528;49.456;11.098;2022-07-25T11:16:48;6.72;;;6.13;;
18661;SDS011;61528;49.456;11.098;2022-07-25T11:19:25;6.30;;;5.90;;
18661;SDS011;61528;49.456;11.098;2022-07-25T11:21:55;6.70;;;6.20;;
18661;SDS011;61528;49.456;11.098;2022-07-25T11:24:33;7.85;;;7.25;;
18661;SDS011;61528;49.456;11.098;2022-07-25T11:27:00;7.72;;;7.03;;
18661;SDS011;61528;49.456;11.098;2022-07-25T11:29:26;8.40;;;7.70;;
18661;SDS011;61528;49.456;11.098;2022-07-25T11:34:23;7.95;;;7.25;;
18661;SDS011;61528;49.456;11.098;2022-07-25T11:36:58;8.18;;;7.47;;
18661;SDS011;61528;49.456;11.098;2022-07-25T11:39:32;7.70;;;7.10;;
18661;SDS011;61528;49.456;11.098;2022-07-25T11:47:08;6.90;;;6.40;;
18661;SDS011;61528;49.456;11.098;2022-07-25T11:49:51;6.30;;;5.80;;
18661;SDS011;61528;49.456;11.098;2022-07-25T11:52:22;6.40;;;5.93;;
18661;SDS011;61528;49.456;11.098;2022-07-25T11:54:57;6.72;;;6.10;;
18661;SDS011;61528;49.456;11.098;2022-07-25T11:57:24;6.47;;;5.97;;
18661;SDS011;61528;49.456;11.098;2022-07-25T11:59:50;6.95;;;6.07;;
18661;SDS011;61528;49.456;11.098;2022-07-25T12:02:24;6.53;;;6.10;;
18661;SDS011;61528;49.456;11.098;2022-07-25T12:05:01;6.90;;;6.40;;
18661;SDS011;61528;49.456;11.098;2022-07-25T12:10:00;7.32;;;6.72;;
18661;SDS011;61528;49.456;11.098;2022-07-25T12:12:27;6.63;;;6.10;;
18661;SDS011;61528;49.456;11.098;2022-07-25T12:14:53;7.88;;;7.07;;
18661;SDS011;61528;49.456;11.098;2022-07-25T12:17:19;7.53;;;6.75;;
18661;SDS011;61528;49.456;11.098;2022-07-25T12:19:46;7.57;;;7.07;;
18661;SDS011;61528;49.456;11.098;2022-07-25T12:22:12;7.70;;;7.10;;
18661;SDS011;61528;49.456;11.098;2022-07-25T12:24:38;8.10;;;7.40;;
18661;SDS011;61528;49.456;11.098;2022-07-25T12:27:04;7.38;;;6.75;;
18661;SDS011;61528;49.456;11.098;2022-07-25T12:29:32;7.88;;;7.28;;
18661;SDS011;61528;49.456;11.098;2022-07-25T12:32:06;8.05;;;7.32;;
18661;SDS011;61528;49.456;11.098;2022-07-25T12:34:32;7.15;;;6.65;;
18661;SDS011;61528;49.456;11.098;2022-07-25T12:36:58;7.55;;;6.95;;
18661;SDS011;61528;49.456;11.098;2022-07-25T12:39:24;8.00;;;7.50;;
18661;SDS011;61528;49.456;11.098;2022-07-25T12:41:50;7.78;;;7.25;;
18661;SDS011;61528;49.456;11.098;2022-07-25T12:44:17;7.90;;;7.40;;
18661;SDS011;61528;49.456;11.098;2022-07-25T12:46:43;8.63;;;7.88;;
18661;SDS011;61528;49.456;11.098;2022-07-25T12:49:09;7.75;;;7.22;;
18661;SDS011;61528;49.456;11.098;2022-07-25T12:51:35;8.70;;;8.10;;
18661;SDS011;61528;49.456;11.098;2022-07-25T12:54:02;8.50;;;7.80;;
18661;SDS011;61528;49.456;11.098;2022-07-25T12:56:28;7.82;;;7.22;;
18661;SDS011;61528;49.456;11.098;2022-07-25T12:58:54;8.88;;;8.20;;
18661;SDS011;61528;49.456;11.098;2022-07-25T13:01:20;8.95;;;8.15;;
18661;SDS011;61528;49.456;11.098;2022-07-25T13:03:46;8.68;;;7.97;;
18661;SDS011;61528;49.456;11.098;2022-07-25T13:06:12;8.60;;;7.88;;
18661;SDS011;61528;49.456;11.098;2022-07-25T13:08:38;8.38;;;7.78;;
18661;SDS011;61528;49.456;11.098;2022-07-25T13:11:07;7.68;;;7.07;;
18661;SDS011;61528;49.456;11.098;2022-07-25T13:13:43;7.10;;;6.60;;
18661;SDS011;61528;49.456;11.098;2022-07-25T13:16:15;7.32;;;6.72;;
18661;SDS011;61528;49.456;11.098;2022-07-25T13:18:51;6.65;;;6.15;;
18661;SDS011;61528;49.456;11.098;2022-07-25T13:21:22;6.80;;;6.20;;
18661;SDS011;61528;49.456;11.098;2022-07-25T13:23:48;7.10;;;6.45;;
18661;SDS011;61528;49.456;11.098;2022-07-25T13:26:14;5.97;;;5.57;;
18661;SDS011;61528;49.456;11.098;2022-07-25T13:28:41;5.60;;;5.22;;
18661;SDS011;61528;49.456;11.098;2022-07-25T13:31:10;5.07;;;4.68;;
18661;SDS011;61528;49.456;11.098;2022-07-25T13:33:39;5.05;;;4.65;;
18661;SDS011;61528;49.456;11.098;2022-07-25T13:36:06;5.05;;;4.72;;
18661;SDS011;61528;49.456;11.098;2022-07-25T13:38:32;5.72;;;4.40;;
18661;SDS011;61528;49.456;11.098;2022-07-25T13:40:58;4.57;;;4.28;;
18661;SDS011;61528;49.456;11.098;2022-07-25T13:43:26;4.30;;;4.00;;
18661;SDS011;61528;49.456;11.098;2022-07-25T13:45:52;3.90;;;3.70;;
18661;SDS011;61528;49.456;11.098;2022-07-25T13:48:18;3.15;;;2.85;;
18661;SDS011;61528;49.456;11.098;2022-07-25T13:50:45;3.15;;;2.95;;
18661;SDS011;61528;49.456;11.098;2022-07-25T13:53:11;3.40;;;3.08;;
18661;SDS011;61528;49.456;11.098;2022-07-25T13:55:37;3.22;;;2.88;;
18661;SDS011;61528;49.456;11.098;2022-07-25T13:58:03;3.63;;;3.33;;
18661;SDS011;61528;49.456;11.098;2022-07-25T14:00:30;3.80;;;3.42;;
18661;SDS011;61528;49.456;11.098;2022-07-25T14:02:56;3.65;;;3.35;;
18661;SDS011;61528;49.456;11.098;2022-07-25T14:05:22;3.78;;;3.58;;
18661;SDS011;61528;49.456;11.098;2022-07-25T14:07:49;3.65;;;3.30;;
18661;SDS011;61528;49.456;11.098;2022-07-25T14:10:15;3.60;;;3.40;;
18661;SDS011;61528;49.456;11.098;2022-07-25T14:12:41;5.20;;;3.92;;
18661;SDS011;61528;49.456;11.098;2022-07-25T14:15:07;3.92;;;3.58;;
18661;SDS011;61528;49.456;11.098;2022-07-25T14:17:34;4.50;;;3.60;;
18661;SDS011;61528;49.456;11.098;2022-07-25T14:20:00;3.78;;;3.50;;
18661;SDS011;61528;49.456;11.098;2022-07-25T14:22:27;3.67;;;3.45;;
18661;SDS011;61528;49.456;11.098;2022-07-25T14:24:54;4.57;;;4.28;;
18661;SDS011;61528;49.456;11.098;2022-07-25T14:27:20;3.92;;;3.63;;
18661;SDS011;61528;49.456;11.098;2022-07-25T14:29:46;4.68;;;4.38;;
18661;SDS011;61528;49.456;11.098;2022-07-25T14:32:12;4.45;;;4.15;;
18661;SDS011;61528;49.456;11.098;2022-07-25T14:34:39;4.40;;;4.10;;
18661;SDS011;61528;49.456;11.098;2022-07-25T14:37:05;4.65;;;4.35;;
18661;SDS011;61528;49.456;11.098;2022-07-25T14:39:32;4.80;;;4.40;;
18661;SDS011;61528;49.456;11.098;2022-07-25T14:41:58;5.07;;;4.20;;
18661;SDS011;61528;49.456;11.098;2022-07-25T14:44:25;4.43;;;4.13;;
18661;SDS011;61528;49.456;11.098;2022-07-25T14:46:52;5.68;;;4.47;;